Página principal
METAR-TAF:

METAR-TAF

Aeroportos :

Porto Santo, Portugal

Aeroporto do Porto Santo

latitude: 33-04N, longitude: 016-21W, altura: 97 m

Observação actual do tempo

O boletim foi feito há 16 minutos, às 15:30 UTC
Vento 11 kt de nor-noroeste
Temperatura 23°C
Humidade 69%
Pressão 1017 hPa
Visibilidade 10 km ou mais
Poucas nuvensa uma altura de 1500 ft

METAR: LPPS 111530Z 33011KT 9999 FEW015 23/17 Q1017

Hora: 16:46 (15:46 UTC)

Previsão

O boletim foi feito há 4 horas e 46 minutos, às 11:00 UTC
Previsão válida de 11 às 12 UTC a 12 às 18 UTC
Vento 10 kt de noroeste
Visibilidade 10 km ou mais
Poucas nuvensa uma altura de 1500 ft
Nuvens dispersasa uma altura de 3000 ft
Temporariamente
de 11 às 12 UTC a 12 às 18 UTC
Nuvens dispersasa uma altura de 1500 ft

TAF: LPPS 111100Z 1112/1218 32010KT 9999 FEW015 SCT030 TEMPO 1112/1218 SCT015

Observações e previsões do tempo de mais de 4000 aeroportos (mensagens METAR e TAF).

As estações disponíveis são os pontos amarelos e vermelhos sobre o mapa.

Mova o rato sobre o mapa para ver o nome da estação.

Depois clique no ponto para visualizar as observações e previsões meteorológicas.

Para alterar o mapa : clique nos botões verdes com uma cruz preta para aumentar o zoom; no botão verde com uma pitada de zoom; ou nas setas verdes para mapas adjacentes.


METAR-TAF: